Terminal Aerodrome Forecast
Issued by NWS Austin/San Antonio, TX

Home | Current Version | Previous Version | Text Only | Print | Product List | Glossary On
Versions: 1 2 3 4 5 6 7 8 9 10 11 12 13 14 15 16 17 18 19 20 21 22
000
FTUS44 KEWX 022339
TAFAUS
TAF
KAUS 022339Z 0300/0406 13007KT P6SM FEW060
     FM030900 VRB02KT P6SM BKN015
     FM031200 VRB02KT P6SM BKN007
     FM031500 16006KT P6SM BKN015
     FM031700 15006KT P6SM SCT050=

USA.gov is the U.S. government's official web portal to all federal, state and local government web resources and services.